Time;durP1;ratioP1;P1;durP2;ratioP2;P2;SDS_P1;SDS_P2;PMS_P1;PMS_P2;Temp;Humidity;BMP_temperature;BMP_pressure;BME280_temperature;BME280_humidity;BME280_pressure;Samples;Min_cycle;Max_cycle;Signal;HPM_P1;HPM_P2
2022/06/25 00:01:27;;;;;;;2.50;1.20;;;20.50;99.90;;;;;;4937110;29;20452;-80
2022/06/25 00:03:53;;;;;;;1.90;1.05;;;20.40;99.90;;;;;;4920250;29;20159;-80
2022/06/25 00:06:20;;;;;;;1.77;1.15;;;20.40;99.90;;;;;;4919952;29;20033;-80
2022/06/25 00:08:47;;;;;;;2.17;0.90;;;20.40;99.90;;;;;;4936879;29;20106;-80
2022/06/25 00:14:07;;;;;;;1.17;0.80;;;20.40;99.90;;;;;;4936802;29;20055;-79
2022/06/25 00:16:34;;;;;;;2.08;0.90;;;20.30;99.90;;;;;;4936950;29;20034;-80
2022/06/25 00:19:00;;;;;;;2.28;0.90;;;20.30;99.90;;;;;;4936955;29;20032;-80
2022/06/25 00:21:25;;;;;;;2.42;1.30;;;20.30;99.90;;;;;;4919749;29;20163;-80
2022/06/25 00:23:51;;;;;;;1.95;1.02;;;20.30;99.90;;;;;;4936527;29;20114;-80
2022/06/25 00:26:17;;;;;;;4.60;1.25;;;20.20;99.90;;;;;;4936904;29;20480;-80
2022/06/25 00:28:42;;;;;;;1.60;1.50;;;20.20;99.90;;;;;;4936475;29;20031;-80
2022/06/25 00:31:08;;;;;;;2.60;2.08;;;20.20;99.90;;;;;;4936953;29;20366;-80
2022/06/25 00:33:33;;;;;;;4.20;2.22;;;20.20;99.90;;;;;;4937150;29;20106;-80
2022/06/25 00:35:59;;;;;;;4.75;2.10;;;20.20;99.90;;;;;;4936622;29;20468;-80
2022/06/25 00:38:25;;;;;;;3.50;1.85;;;20.20;99.90;;;;;;4936741;29;20507;-80
2022/06/25 00:40:51;;;;;;;3.33;1.75;;;20.20;99.90;;;;;;4919541;29;20123;-80
2022/06/25 00:43:17;;;;;;;2.63;1.70;;;20.20;99.90;;;;;;4936766;29;20062;-80
2022/06/25 00:45:43;;;;;;;1.58;0.98;;;20.00;99.90;;;;;;4936590;29;20031;-80
2022/06/25 00:48:09;;;;;;;7.28;1.13;;;20.00;99.90;;;;;;4919493;29;20028;-80
2022/06/25 00:50:35;;;;;;;4.05;0.68;;;19.90;99.90;;;;;;4919074;29;20062;-79
2022/06/25 00:53:07;;;;;;;1.17;0.47;;;19.70;99.90;;;;;;4936487;29;20118;-79
2022/06/25 00:55:38;;;;;;;3.75;0.70;;;19.60;99.90;;;;;;4936813;29;20036;-80
2022/06/25 00:58:09;;;;;;;1.20;0.40;;;19.50;99.90;;;;;;4936497;29;20028;-80
2022/06/25 01:00:34;;;;;;;2.65;0.30;;;19.40;99.90;;;;;;4938653;29;20031;-80
2022/06/25 01:03:00;;;;;;;10.30;0.20;;;19.30;99.90;;;;;;4940375;29;20034;-79
2022/06/25 01:05:26;;;;;;;5.18;0.10;;;19.20;99.90;;;;;;4940402;29;20036;-79
2022/06/25 01:07:51;;;;;;;2.08;0.03;;;19.00;99.90;;;;;;4923128;29;20391;-79
2022/06/25 01:10:17;;;;;;;0.80;0.10;;;18.90;99.90;;;;;;4940188;29;20036;-79
2022/06/25 01:12:43;;;;;;;0.80;0.20;;;18.80;99.90;;;;;;4923119;29;20071;-79
2022/06/25 01:15:17;;;;;;;2.50;0.10;;;18.80;99.90;;;;;;4940347;29;20028;-79
2022/06/25 01:17:44;;;;;;;0.00;0.00;;;18.80;99.90;;;;;;4940082;29;20024;-79
2022/06/25 01:20:11;;;;;;;0.00;0.00;;;18.70;99.90;;;;;;4922970;29;20456;-80
2022/06/25 01:22:36;;;;;;;0.38;0.00;;;18.70;99.90;;;;;;4939971;29;20111;-79
2022/06/25 01:25:02;;;;;;;3.13;1.02;;;18.70;99.90;;;;;;4939943;29;20106;-79
2022/06/25 01:27:28;;;;;;;0.43;0.00;;;18.60;99.90;;;;;;4940081;29;20440;-79
2022/06/25 01:29:53;;;;;;;0.20;0.00;;;18.60;99.90;;;;;;4939933;29;20065;-79
2022/06/25 01:32:19;;;;;;;1.02;0.00;;;18.50;99.90;;;;;;4922736;29;20028;-79
2022/06/25 01:34:45;;;;;;;0.32;0.00;;;18.40;99.90;;;;;;4939698;29;20061;-79
2022/06/25 01:37:10;;;;;;;0.00;0.00;;;18.40;99.90;;;;;;4922613;29;20035;-79
2022/06/25 01:39:36;;;;;;;0.00;0.00;;;18.30;99.90;;;;;;4939710;29;20031;-79
2022/06/25 01:42:03;;;;;;;0.10;0.00;;;18.30;99.90;;;;;;4939608;29;20482;-79
2022/06/25 01:44:29;;;;;;;0.20;0.00;;;18.30;99.90;;;;;;4922442;29;20055;-80
2022/06/25 01:46:55;;;;;;;0.00;0.00;;;18.20;99.90;;;;;;4923089;29;20067;-79
2022/06/25 01:49:22;;;;;;;0.05;0.00;;;18.20;99.90;;;;;;4922274;29;20032;-79
2022/06/25 01:51:48;;;;;;;1.45;0.00;;;18.20;99.90;;;;;;4922352;29;20078;-79
2022/06/25 01:54:13;;;;;;;0.47;0.00;;;18.10;99.90;;;;;;4922481;29;20118;-79
2022/06/25 01:56:39;;;;;;;0.30;0.20;;;18.10;99.90;;;;;;4922230;29;20186;-79
2022/06/25 01:59:05;;;;;;;1.85;0.35;;;18.10;99.90;;;;;;4939342;29;20028;-79
2022/06/25 02:01:31;;;;;;;0.00;0.00;;;18.10;99.90;;;;;;4922190;29;20038;-79
2022/06/25 02:03:56;;;;;;;0.13;0.00;;;18.10;99.90;;;;;;4922106;29;20126;-79
2022/06/25 02:06:22;;;;;;;0.28;0.00;;;18.10;99.90;;;;;;4939305;29;20032;-80
2022/06/25 02:08:47;;;;;;;0.28;0.00;;;18.10;99.90;;;;;;4939233;29;20115;-79
2022/06/25 02:11:13;;;;;;;1.98;0.00;;;18.00;99.90;;;;;;4921769;29;20464;-79
2022/06/25 02:13:39;;;;;;;1.45;0.00;;;18.00;99.90;;;;;;4939096;29;20032;-79
2022/06/25 02:16:05;;;;;;;0.10;0.00;;;18.00;99.90;;;;;;4939063;29;20039;-79
2022/06/25 02:18:31;;;;;;;0.03;0.00;;;18.00;99.90;;;;;;4938841;29;20036;-79
2022/06/25 02:20:57;;;;;;;0.10;0.00;;;18.00;99.90;;;;;;4939068;29;20024;-80
2022/06/25 02:23:23;;;;;;;0.00;0.00;;;17.90;99.90;;;;;;4939050;29;20036;-79
2022/06/25 02:25:50;;;;;;;0.17;0.00;;;18.00;99.90;;;;;;4938568;29;20119;-79
2022/06/25 02:28:16;;;;;;;0.35;0.00;;;17.90;99.90;;;;;;4921741;29;20464;-79
2022/06/25 02:30:43;;;;;;;1.25;0.80;;;17.90;99.90;;;;;;4921582;29;20145;-79
2022/06/25 02:33:13;;;;;;;0.00;0.00;;;17.90;99.90;;;;;;4938694;29;20110;-80
2022/06/25 02:35:41;;;;;;;1.95;0.52;;;17.90;99.90;;;;;;4938705;29;20167;-79
2022/06/25 02:38:08;;;;;;;0.63;0.00;;;17.90;99.90;;;;;;4938639;29;20095;-80
2022/06/25 02:40:34;;;;;;;0.35;0.00;;;17.80;99.90;;;;;;4921439;29;20028;-80
2022/06/25 02:43:01;;;;;;;1.85;0.10;;;17.80;99.90;;;;;;4921490;29;20027;-80
2022/06/25 02:45:26;;;;;;;0.15;0.00;;;17.80;99.90;;;;;;4938681;29;20036;-80
2022/06/25 02:47:52;;;;;;;0.05;0.00;;;17.90;99.90;;;;;;4938895;29;20032;-79
2022/06/25 02:50:18;;;;;;;0.00;0.00;;;17.80;99.90;;;;;;4936828;29;20036;-79
2022/06/25 02:52:43;;;;;;;0.00;0.00;;;17.80;99.90;;;;;;4938311;29;20107;-79
2022/06/25 02:55:09;;;;;;;0.00;0.00;;;17.80;99.90;;;;;;4938319;29;20057;-79
2022/06/25 03:00:19;;;;;;;3.83;0.00;;;17.70;99.90;;;;;;4938168;29;20043;-80
2022/06/25 03:02:44;;;;;;;1.33;0.00;;;17.70;99.90;;;;;;4938117;29;20032;-79
2022/06/25 03:05:10;;;;;;;0.30;0.10;;;17.70;99.90;;;;;;4938315;29;20024;-79
2022/06/25 03:07:36;;;;;;;0.00;0.00;;;17.70;99.90;;;;;;4921463;29;20408;-80
2022/06/25 03:10:02;;;;;;;0.55;0.00;;;17.70;99.90;;;;;;4937910;29;20035;-79
2022/06/25 03:12:28;;;;;;;0.00;0.00;;;17.70;99.90;;;;;;4938004;29;20028;-79
2022/06/25 03:14:54;;;;;;;0.00;0.00;;;17.70;99.90;;;;;;4938207;29;20032;-80
2022/06/25 03:17:19;;;;;;;0.10;0.00;;;17.70;99.90;;;;;;4937615;29;20445;-80
2022/06/25 03:19:45;;;;;;;0.38;0.00;;;17.70;99.90;;;;;;4920693;29;20086;-80
2022/06/25 03:22:11;;;;;;;0.10;0.00;;;17.70;99.90;;;;;;4937307;29;20059;-80
2022/06/25 03:24:36;;;;;;;0.17;0.00;;;17.60;99.90;;;;;;4937493;29;20082;-79
2022/06/25 03:27:02;;;;;;;0.00;0.00;;;17.50;99.90;;;;;;4937612;29;20515;-79
2022/06/25 03:29:27;;;;;;;1.20;0.00;;;17.30;99.90;;;;;;4921244;29;20039;-79
2022/06/25 03:31:53;;;;;;;0.00;0.00;;;17.20;99.90;;;;;;4937661;29;20031;-80
2022/06/25 03:34:19;;;;;;;0.00;0.00;;;17.10;99.90;;;;;;4937576;29;20400;-80
2022/06/25 03:36:44;;;;;;;1.65;0.00;;;17.10;99.90;;;;;;4920800;29;20091;-80
2022/06/25 03:39:10;;;;;;;0.10;0.00;;;17.00;99.90;;;;;;4937531;29;20031;-79
2022/06/25 03:41:36;;;;;;;0.15;0.00;;;17.00;99.90;;;;;;4920405;29;20369;-79
2022/06/25 03:44:06;;;;;;;0.10;0.00;;;17.00;99.90;;;;;;4920487;29;20024;-79
2022/06/25 03:46:33;;;;;;;0.30;0.00;;;17.00;99.90;;;;;;4937517;29;20039;-79
2022/06/25 03:48:59;;;;;;;0.00;0.00;;;17.00;99.90;;;;;;4920390;29;20036;-79
2022/06/25 03:51:25;;;;;;;0.00;0.00;;;17.00;99.90;;;;;;4937258;29;20392;-79
2022/06/25 03:53:51;;;;;;;0.25;0.00;;;16.90;99.90;;;;;;4920350;29;20027;-79
2022/06/25 03:56:16;;;;;;;0.00;0.00;;;16.90;99.90;;;;;;4920111;29;20428;-79
2022/06/25 03:58:42;;;;;;;1.00;0.00;;;17.00;99.90;;;;;;4920190;29;20027;-80
2022/06/25 04:01:08;;;;;;;0.00;0.00;;;16.90;99.90;;;;;;4937038;29;20039;-80
2022/06/25 04:03:34;;;;;;;0.38;0.00;;;16.90;99.90;;;;;;4937598;29;20457;-80
2022/06/25 04:05:59;;;;;;;0.10;0.00;;;16.90;99.90;;;;;;4937136;29;20035;-80
2022/06/25 04:08:25;;;;;;;0.65;0.00;;;16.90;99.90;;;;;;4937023;29;20456;-80
2022/06/25 04:10:51;;;;;;;0.22;0.00;;;16.80;99.90;;;;;;4919796;29;20043;-80
2022/06/25 04:13:16;;;;;;;0.00;0.00;;;16.80;99.90;;;;;;4919912;29;20119;-80
2022/06/25 04:15:42;;;;;;;0.40;0.00;;;16.70;99.90;;;;;;4936915;29;20033;-80
2022/06/25 04:18:08;;;;;;;0.00;0.00;;;16.70;99.90;;;;;;4936894;29;20031;-79
2022/06/25 04:20:33;;;;;;;0.95;0.00;;;16.70;99.90;;;;;;4937041;29;20027;-79
2022/06/25 04:22:59;;;;;;;0.05;0.00;;;16.50;99.90;;;;;;4936843;29;20452;-77
2022/06/25 04:25:25;;;;;;;2.13;0.20;;;16.40;99.90;;;;;;4936729;29;20111;-75
2022/06/25 04:30:35;;;;;;;1.55;0.20;;;16.20;99.90;;;;;;4936597;29;20500;-73
2022/06/25 04:33:00;;;;;;;0.95;0.55;;;16.00;99.90;;;;;;4936309;29;20027;-79
2022/06/25 04:35:27;;;;;;;0.15;0.00;;;16.00;99.90;;;;;;4919525;29;20123;-75
2022/06/25 04:37:52;;;;;;;0.10;0.10;;;16.00;99.90;;;;;;4919181;29;20027;-74
2022/06/25 04:40:18;;;;;;;0.00;0.00;;;15.90;99.90;;;;;;4936862;29;20031;-75
2022/06/25 04:42:45;;;;;;;1.75;0.20;;;16.00;99.90;;;;;;4936755;29;20042;-74
2022/06/25 04:45:11;;;;;;;1.10;0.10;;;16.00;99.90;;;;;;4936386;29;20032;-74
2022/06/25 04:47:36;;;;;;;0.03;0.00;;;16.00;99.90;;;;;;4919394;29;20035;-74
2022/06/25 04:50:03;;;;;;;0.55;0.10;;;16.00;99.90;;;;;;4936443;29;20501;-74
2022/06/25 04:52:28;;;;;;;1.25;0.10;;;16.10;99.90;;;;;;4919321;29;20082;-75
2022/06/25 04:54:54;;;;;;;0.10;0.10;;;16.10;99.90;;;;;;4936193;29;20110;-75
2022/06/25 04:57:20;;;;;;;0.20;0.10;;;16.10;99.90;;;;;;4936800;29;20487;-75
2022/06/25 04:59:45;;;;;;;0.10;0.05;;;16.00;99.90;;;;;;4919487;29;20032;-75
2022/06/25 05:02:11;;;;;;;0.13;0.10;;;16.00;99.90;;;;;;4936540;29;20453;-75
2022/06/25 05:04:36;;;;;;;1.40;0.20;;;16.00;99.90;;;;;;4936325;29;20035;-75
2022/06/25 05:07:02;;;;;;;0.20;0.20;;;16.00;99.90;;;;;;4936317;29;20103;-76
2022/06/25 05:09:28;;;;;;;1.45;0.20;;;15.90;99.90;;;;;;4936397;29;20042;-75
2022/06/25 05:11:54;;;;;;;0.75;0.10;;;15.90;99.90;;;;;;4919446;29;20028;-75
2022/06/25 05:14:19;;;;;;;2.40;0.20;;;15.90;99.90;;;;;;4936106;29;20032;-75
2022/06/25 05:16:45;;;;;;;0.55;0.20;;;15.90;99.90;;;;;;4936370;29;20032;-74
2022/06/25 05:19:11;;;;;;;0.47;0.20;;;15.80;99.90;;;;;;4936333;29;20027;-71
2022/06/25 05:21:37;;;;;;;1.63;0.60;;;15.70;99.90;;;;;;4936002;29;20428;-72
2022/06/25 05:24:03;;;;;;;0.32;0.28;;;15.60;99.90;;;;;;4936787;29;20028;-73
2022/06/25 05:26:29;;;;;;;2.20;0.30;;;15.50;99.90;;;;;;4936495;29;20090;-74
2022/06/25 05:28:55;;;;;;;7.10;0.30;;;15.50;99.90;;;;;;4936448;29;20027;-74
2022/06/25 05:31:20;;;;;;;1.80;0.20;;;15.40;99.90;;;;;;4919685;29;20497;-75
2022/06/25 05:33:46;;;;;;;0.77;0.40;;;15.40;99.90;;;;;;4936482;29;20035;-75
2022/06/25 05:36:12;;;;;;;3.38;0.30;;;15.40;99.90;;;;;;4936519;29;20506;-74
2022/06/25 05:38:37;;;;;;;1.05;0.30;;;15.40;99.90;;;;;;4919150;29;20122;-74
2022/06/25 05:41:08;;;;;;;1.38;0.30;;;15.40;99.90;;;;;;4935807;29;20087;-74
2022/06/25 05:43:34;;;;;;;1.13;0.30;;;15.50;99.90;;;;;;4919302;29;20079;-73
2022/06/25 05:46:00;;;;;;;0.30;0.25;;;15.50;99.90;;;;;;4936656;29;20420;-73
2022/06/25 05:48:26;;;;;;;0.38;0.30;;;15.50;99.90;;;;;;4939521;29;20083;-73
2022/06/25 05:50:51;;;;;;;0.40;0.40;;;15.50;99.90;;;;;;4922250;29;20031;-73
2022/06/25 05:53:17;;;;;;;0.68;0.30;;;15.50;99.90;;;;;;4939966;29;20075;-73
2022/06/25 05:55:42;;;;;;;2.92;0.50;;;15.50;99.90;;;;;;4939615;29;20461;-62
2022/06/25 05:58:08;;;;;;;1.50;0.55;;;15.60;99.90;;;;;;4939332;29;20055;-61
2022/06/25 06:00:34;;;;;;;0.30;0.30;;;15.70;99.90;;;;;;4938965;29;20032;-73
2022/06/25 06:02:59;;;;;;;1.00;0.38;;;15.70;99.90;;;;;;4922150;29;20028;-73
2022/06/25 06:05:25;;;;;;;0.93;0.38;;;15.70;99.90;;;;;;4938969;29;20039;-74
2022/06/25 06:07:50;;;;;;;1.00;0.30;;;15.70;99.90;;;;;;4939147;29;20408;-75
2022/06/25 06:10:16;;;;;;;1.00;0.30;;;15.70;99.90;;;;;;4939122;29;20361;-75
2022/06/25 06:12:42;;;;;;;0.80;0.30;;;15.80;99.90;;;;;;4939060;29;20106;-73
2022/06/25 06:15:08;;;;;;;0.20;0.20;;;15.80;99.90;;;;;;4939020;29;20468;-73
2022/06/25 06:17:34;;;;;;;1.42;0.20;;;15.80;99.90;;;;;;4939199;29;20110;-74
2022/06/25 06:20:00;;;;;;;1.23;0.32;;;15.90;99.90;;;;;;4938941;29;20081;-73
2022/06/25 06:22:26;;;;;;;0.70;0.32;;;16.00;99.90;;;;;;4938870;29;20384;-73
2022/06/25 06:24:52;;;;;;;0.77;0.20;;;16.00;99.90;;;;;;4921796;29;20034;-77
2022/06/25 06:27:18;;;;;;;1.58;0.32;;;16.10;99.90;;;;;;4922191;29;20059;-76
2022/06/25 06:29:43;;;;;;;0.10;0.10;;;16.20;99.90;;;;;;4938766;29;20047;-76
2022/06/25 06:32:09;;;;;;;0.20;0.20;;;16.20;99.90;;;;;;4921759;29;20036;-77
2022/06/25 06:34:34;;;;;;;0.88;0.10;;;16.30;99.90;;;;;;4938918;29;20036;-62
2022/06/25 06:37:00;;;;;;;0.10;0.10;;;16.40;99.90;;;;;;4938603;29;20075;-62
2022/06/25 06:39:26;;;;;;;0.75;0.13;;;16.60;99.90;;;;;;4921638;29;20458;-64
2022/06/25 06:41:51;;;;;;;2.10;0.20;;;16.80;99.90;;;;;;4921524;29;20028;-79
2022/06/25 06:44:17;;;;;;;0.20;0.10;;;16.80;99.90;;;;;;4938520;29;20386;-76
2022/06/25 06:46:42;;;;;;;0.35;0.20;;;16.80;99.90;;;;;;4938478;29;20024;-79
2022/06/25 06:49:09;;;;;;;0.35;0.10;;;16.70;99.90;;;;;;4938345;29;20032;-78
2022/06/25 06:51:35;;;;;;;0.65;0.25;;;16.70;99.90;;;;;;4937476;29;20373;-79
2022/06/25 06:54:00;;;;;;;0.30;0.30;;;16.80;99.90;;;;;;4936271;29;20042;-79
2022/06/25 06:56:26;;;;;;;0.25;0.20;;;16.80;99.90;;;;;;4957329;29;20027;-79
2022/06/25 06:58:51;;;;;;;0.47;0.40;;;16.80;99.90;;;;;;4950022;28;20028;-76
2022/06/25 07:01:17;;;;;;;0.32;0.30;;;16.80;99.90;;;;;;4938096;29;20032;-76
2022/06/25 07:03:43;;;;;;;0.15;0.15;;;16.90;99.90;;;;;;4921312;29;20118;-77
2022/06/25 07:06:08;;;;;;;0.80;0.20;;;16.90;99.90;;;;;;4921222;29;20023;-77
2022/06/25 07:08:34;;;;;;;0.52;0.40;;;16.90;99.90;;;;;;4938248;29;20139;-77
2022/06/25 07:11:00;;;;;;;0.40;0.40;;;16.90;99.90;;;;;;4943749;29;20117;-78
2022/06/25 07:13:25;;;;;;;0.40;0.40;;;16.90;99.90;;;;;;4957228;29;20498;-78
2022/06/25 07:15:51;;;;;;;0.25;0.20;;;16.90;99.90;;;;;;4957056;29;20034;-76
2022/06/25 07:18:17;;;;;;;0.60;0.47;;;17.00;99.90;;;;;;4956947;29;20045;-80
2022/06/25 07:20:43;;;;;;;0.32;0.32;;;17.00;99.90;;;;;;4957254;29;20035;-77
2022/06/25 07:23:09;;;;;;;0.40;0.40;;;17.00;99.90;;;;;;4939786;29;20034;-60
2022/06/25 07:25:34;;;;;;;5.05;0.50;;;17.10;99.90;;;;;;4956436;29;20023;-60
2022/06/25 07:28:00;;;;;;;0.65;0.38;;;17.20;99.90;;;;;;4956136;29;20482;-60
2022/06/25 07:30:26;;;;;;;0.68;0.43;;;17.30;99.90;;;;;;4956716;29;20038;-60
2022/06/25 07:32:51;;;;;;;0.40;0.40;;;17.50;99.90;;;;;;4956731;29;20027;-60
2022/06/25 07:35:17;;;;;;;1.98;0.40;;;17.60;99.90;;;;;;4956374;29;20526;-60
2022/06/25 07:37:43;;;;;;;0.40;0.40;;;17.70;99.90;;;;;;4956349;29;20123;-60
2022/06/25 07:40:09;;;;;;;0.22;0.20;;;17.90;99.90;;;;;;4955663;29;20063;-61
2022/06/25 07:42:34;;;;;;;0.40;0.40;;;18.20;99.90;;;;;;4939725;29;20027;-60
2022/06/25 07:45:00;;;;;;;0.57;0.20;;;18.30;99.90;;;;;;4956397;29;20107;-60
2022/06/25 07:47:26;;;;;;;1.77;0.20;;;18.40;99.90;;;;;;4956400;29;20027;-62
2022/06/25 07:52:35;;;;;;;0.40;0.20;;;18.60;99.90;;;;;;4937098;29;20063;-62
2022/06/25 07:55:03;;;;;;;0.30;0.30;;;18.60;99.90;;;;;;4949555;29;20027;-60
2022/06/25 07:57:29;;;;;;;1.45;0.20;;;18.70;99.90;;;;;;4956183;29;20031;-61
2022/06/25 07:59:54;;;;;;;0.30;0.13;;;18.60;99.90;;;;;;4951010;29;20043;-60
2022/06/25 08:02:20;;;;;;;0.20;0.20;;;18.50;99.90;;;;;;4956207;29;20387;-60
2022/06/25 08:04:46;;;;;;;1.48;0.30;;;18.50;99.90;;;;;;4953352;29;20024;-68
2022/06/25 08:07:12;;;;;;;1.52;0.40;;;18.60;99.90;;;;;;4920465;29;20031;-61
2022/06/25 08:09:37;;;;;;;0.32;0.30;;;18.60;99.90;;;;;;4936932;29;20456;-61
2022/06/25 08:12:04;;;;;;;0.82;0.43;;;18.70;99.90;;;;;;4937034;29;20032;-61
2022/06/25 08:14:29;;;;;;;1.38;0.25;;;18.60;99.90;;;;;;4939480;29;20032;-61
2022/06/25 08:16:55;;;;;;;1.08;0.40;;;18.50;99.90;;;;;;4955531;29;20035;-61
2022/06/25 08:19:22;;;;;;;0.52;0.40;;;18.40;99.90;;;;;;4951261;29;20035;-61
2022/06/25 08:21:47;;;;;;;1.13;0.20;;;18.40;99.90;;;;;;4955042;29;20034;-61
2022/06/25 08:24:13;;;;;;;3.10;0.30;;;18.40;99.90;;;;;;4955661;29;20027;-60
2022/06/25 08:26:39;;;;;;;2.05;0.30;;;18.40;99.90;;;;;;4938028;29;20051;-61
2022/06/25 08:29:04;;;;;;;0.30;0.17;;;18.40;99.90;;;;;;4955894;29;20090;-80
2022/06/25 08:31:30;;;;;;;3.47;0.32;;;18.50;99.90;;;;;;4956016;29;20376;-79
2022/06/25 08:33:55;;;;;;;1.55;0.30;;;18.50;99.90;;;;;;4938628;29;20023;-78
2022/06/25 08:36:22;;;;;;;1.05;0.30;;;18.50;99.90;;;;;;4955268;29;20070;-58
2022/06/25 08:38:47;;;;;;;1.05;0.45;;;18.60;99.90;;;;;;4955828;29;20023;-57
2022/06/25 08:41:14;;;;;;;0.10;0.10;;;18.80;99.90;;;;;;4955670;29;20374;-57
2022/06/25 08:43:41;;;;;;;2.80;0.20;;;18.90;99.90;;;;;;4955596;29;20024;-57
2022/06/25 08:46:07;;;;;;;0.40;0.30;;;18.90;99.90;;;;;;4955646;29;20129;-57
2022/06/25 08:48:35;;;;;;;4.10;0.57;;;18.90;99.90;;;;;;4955560;29;20031;-57
2022/06/25 08:51:03;;;;;;;1.08;0.30;;;19.00;99.90;;;;;;4955310;29;20035;-57
2022/06/25 08:53:33;;;;;;;2.57;0.93;;;19.10;99.90;;;;;;4955566;29;20114;-58
2022/06/25 08:56:00;;;;;;;0.77;0.20;;;19.10;99.90;;;;;;4955576;29;20334;-57
2022/06/25 08:58:26;;;;;;;0.47;0.30;;;19.10;99.90;;;;;;4955730;29;20039;-57
2022/06/25 09:00:52;;;;;;;0.98;0.43;;;19.10;99.90;;;;;;4955227;29;20050;-57
2022/06/25 09:03:17;;;;;;;1.23;0.30;;;19.20;99.90;;;;;;4955376;29;20031;-57
2022/06/25 09:05:44;;;;;;;0.63;0.10;;;19.20;99.90;;;;;;4955839;29;20472;-57
2022/06/25 09:08:13;;;;;;;0.80;0.30;;;19.30;99.90;;;;;;4955401;29;20429;-57
2022/06/25 09:10:40;;;;;;;;;;;19.40;99.90;;;;;;4955764;29;20049;-58
2022/06/25 09:13:11;;;;;;;0.47;0.30;;;19.40;99.90;;;;;;4954358;29;19957;-58
2022/06/25 09:15:42;;;;;;;2.08;0.20;;;19.40;99.90;;;;;;4955160;29;20459;-58
2022/06/25 09:18:16;;;;;;;0.20;0.20;;;19.40;99.90;;;;;;4955349;29;20031;-57
2022/06/25 09:20:58;;;;;;;0.38;0.13;;;19.40;99.90;;;;;;4955966;28;20035;-68
2022/06/25 09:23:25;;;;;;;5.50;0.20;;;19.40;99.90;;;;;;4959170;29;20030;-57
2022/06/25 09:26:04;;;;;;;1.48;0.10;;;19.50;99.90;;;;;;4959357;29;20039;-56
2022/06/25 09:28:31;;;;;;;;;;;19.40;99.90;;;;;;4959118;29;20043;-56
2022/06/25 09:30:56;;;;;;;0.22;0.20;;;19.60;99.90;;;;;;4958999;29;20393;-83
2022/06/25 09:33:22;;;;;;;0.70;0.10;;;19.60;99.90;;;;;;4959071;29;20032;-81
2022/06/25 09:35:51;;;;;;;4.22;0.30;;;19.50;99.90;;;;;;4941623;29;20039;-82
2022/06/25 09:38:17;;;;;;;0.77;0.40;;;19.50;99.90;;;;;;4959339;29;20031;-82
2022/06/25 09:40:48;;;;;;;2.40;0.32;;;19.40;99.90;;;;;;4958963;29;20391;-82
2022/06/25 09:43:17;;;;;;;1.05;0.30;;;19.40;99.90;;;;;;4958766;29;20035;-82
2022/06/25 09:45:44;;;;;;;2.72;0.20;;;19.40;99.90;;;;;;4941471;29;20027;-82
2022/06/25 09:48:21;;;;;;;0.28;0.28;;;19.30;99.90;;;;;;4958469;29;20439;-82
2022/06/25 09:51:10;;;;;;;0.30;0.30;;;19.30;99.90;;;;;;4941811;29;20039;-82
2022/06/25 09:53:54;;;;;;;0.35;0.30;;;19.40;99.90;;;;;;4941927;29;20082;-82
2022/06/25 09:56:28;;;;;;;0.40;0.20;;;19.40;99.90;;;;;;4958719;29;20059;-82
2022/06/25 09:58:55;;;;;;;0.45;0.10;;;19.40;99.90;;;;;;4958879;29;20055;-82
2022/06/25 10:01:23;;;;;;;0.17;0.10;;;19.40;99.90;;;;;;4941525;29;20094;-82
2022/06/25 10:03:49;;;;;;;0.20;0.20;;;19.40;99.90;;;;;;4941162;29;20023;-82
2022/06/25 10:06:18;;;;;;;0.20;0.20;;;19.50;99.90;;;;;;4941388;29;20062;-82
2022/06/25 10:08:49;;;;;;;2.75;0.20;;;19.40;99.90;;;;;;4958615;29;20027;-82
2022/06/25 10:11:16;;;;;;;1.05;0.20;;;19.20;99.90;;;;;;4941087;29;20468;-82
2022/06/25 10:13:42;;;;;;;0.40;0.20;;;19.10;99.90;;;;;;4941077;29;20030;-81
2022/06/25 10:16:08;;;;;;;0.20;0.10;;;19.10;99.90;;;;;;4958423;29;20023;-81
2022/06/25 10:18:36;;;;;;;3.30;0.30;;;19.00;99.90;;;;;;4957897;29;20395;-81
2022/06/25 10:21:02;;;;;;;3.72;0.20;;;19.00;99.90;;;;;;4958155;29;20085;-81
2022/06/25 10:23:28;;;;;;;0.20;0.20;;;18.90;99.90;;;;;;4940827;29;20035;-81
2022/06/25 10:25:54;;;;;;;0.20;0.20;;;18.90;99.90;;;;;;4940662;29;20575;-82
2022/06/25 10:28:26;;;;;;;1.33;0.40;;;18.90;99.90;;;;;;4958144;29;20110;-82
2022/06/25 10:30:58;;;;;;;1.10;0.10;;;18.80;99.90;;;;;;4957962;29;20177;-81
2022/06/25 10:33:26;;;;;;;0.28;0.28;;;18.80;99.90;;;;;;4957760;28;20094;-82
2022/06/25 10:35:58;;;;;;;0.32;0.10;;;18.80;99.90;;;;;;4941017;29;20023;-58
2022/06/25 10:38:25;;;;;;;0.63;0.10;;;19.00;99.90;;;;;;4958363;29;20031;-58
2022/06/25 10:43:50;;;;;;;0.50;0.50;;;19.40;99.90;;;;;;4957365;29;20038;-58
2022/06/25 10:46:24;;;;;;;0.20;0.10;;;19.60;99.90;;;;;;4957501;29;20027;-58
2022/06/25 10:48:56;;;;;;;0.98;0.38;;;19.70;99.90;;;;;;4957867;29;20039;-58
2022/06/25 10:51:49;;;;;;;3.05;0.20;;;19.80;99.90;;;;;;4957239;29;20428;-58
2022/06/25 10:54:24;;;;;;;0.20;0.20;;;19.90;99.90;;;;;;4936807;29;20051;-58
2022/06/25 10:56:54;;;;;;;2.08;0.30;;;20.00;99.90;;;;;;4957356;29;20027;-58
2022/06/25 10:59:46;;;;;;;0.60;0.30;;;20.10;99.90;;;;;;4957086;29;20427;-58
2022/06/25 11:02:14;;;;;;;0.25;0.25;;;20.20;99.90;;;;;;4957306;29;20085;-58
2022/06/25 11:04:52;;;;;;;0.20;0.20;;;20.40;99.90;;;;;;4957263;29;20023;-58
2022/06/25 11:07:24;;;;;;;0.13;0.10;;;20.40;99.90;;;;;;4957562;29;20039;-58
2022/06/25 11:10:01;;;;;;;1.65;0.30;;;20.50;99.90;;;;;;4957295;29;20031;-58
2022/06/25 11:12:29;;;;;;;4.13;0.22;;;20.50;99.90;;;;;;4957015;29;20102;-58
2022/06/25 11:14:59;;;;;;;0.53;0.10;;;20.60;99.90;;;;;;4956752;29;20364;-58
2022/06/25 11:17:24;;;;;;;0.50;0.20;;;20.60;99.90;;;;;;4956724;29;20395;-58
2022/06/25 11:19:50;;;;;;;0.63;0.40;;;20.50;99.90;;;;;;4956728;29;20031;-58
2022/06/25 11:22:16;;;;;;;2.35;0.20;;;20.50;99.90;;;;;;4956896;29;20027;-58
2022/06/25 11:30:14;;;;;;;0.40;0.30;;;20.50;99.90;;;;;;4956648;29;20043;-58
2022/06/25 11:32:43;;;;;;;1.88;0.45;;;20.50;99.90;;;;;;4956989;29;20035;-58
2022/06/25 11:35:09;;;;;;;0.30;0.30;;;20.50;99.90;;;;;;4956364;29;20424;-57
2022/06/25 11:37:35;;;;;;;0.22;0.20;;;20.50;99.90;;;;;;4956643;29;20035;-57
2022/06/25 11:40:00;;;;;;;1.88;0.30;;;20.50;99.90;;;;;;4956249;29;20039;-57
2022/06/25 11:42:26;;;;;;;1.75;0.30;;;20.50;99.90;;;;;;4956176;29;20027;-57
2022/06/25 11:44:56;;;;;;;0.65;0.10;;;20.70;99.90;;;;;;4956324;28;20031;-57
2022/06/25 11:47:27;;;;;;;0.25;0.10;;;20.90;99.90;;;;;;4956922;29;20027;-57
2022/06/25 11:49:53;;;;;;;1.83;0.38;;;20.90;99.90;;;;;;4956355;29;20127;-58
2022/06/25 11:52:21;;;;;;;0.28;0.20;;;21.10;99.90;;;;;;4956800;29;20027;-57
2022/06/25 11:54:48;;;;;;;2.17;0.40;;;21.30;99.90;;;;;;4956442;29;20031;-57
2022/06/25 11:57:19;;;;;;;0.85;0.20;;;21.50;99.90;;;;;;4956288;29;20035;-58
2022/06/25 11:59:45;;;;;;;1.00;0.20;;;21.50;99.90;;;;;;4955940;29;20515;-58
2022/06/25 12:02:12;;;;;;;0.20;0.17;;;21.60;99.90;;;;;;4956207;29;20527;-57
2022/06/25 12:05:11;;;;;;;1.95;0.22;;;21.70;99.90;;;;;;4956016;29;20033;-58
2022/06/25 12:07:36;;;;;;;0.82;0.22;;;21.70;99.90;;;;;;4903707;29;20040;-58
2022/06/25 12:10:11;;;;;;;0.20;0.17;;;21.80;99.90;;;;;;4956196;29;20051;-57
2022/06/25 12:12:38;;;;;;;0.35;0.30;;;21.80;99.90;;;;;;4955937;29;20106;-57
2022/06/25 12:15:05;;;;;;;0.40;0.20;;;21.70;99.90;;;;;;4955674;29;20471;-58
2022/06/25 12:17:36;;;;;;;0.65;0.20;;;21.70;99.90;;;;;;4956020;29;20027;-57
2022/06/25 12:20:13;;;;;;;0.73;0.22;;;21.60;99.90;;;;;;4956002;29;20035;-57
2022/06/25 12:22:46;;;;;;;0.25;0.20;;;21.70;99.90;;;;;;4956040;29;20035;-58
2022/06/25 12:25:21;;;;;;;0.20;0.20;;;21.80;99.90;;;;;;4955899;29;20034;-58
2022/06/25 12:27:49;;;;;;;0.82;0.30;;;21.90;99.90;;;;;;4955622;29;20079;-58
2022/06/25 12:30:28;;;;;;;1.10;0.20;;;21.90;99.90;;;;;;4955514;29;20479;-57
2022/06/25 12:32:57;;;;;;;0.63;0.20;;;21.60;99.90;;;;;;4955959;29;20531;-57
2022/06/25 12:35:28;;;;;;;0.20;0.20;;;21.60;99.90;;;;;;4955689;29;20047;-57
2022/06/25 12:38:04;;;;;;;0.30;0.20;;;21.70;99.90;;;;;;4955792;29;20025;-79
2022/06/25 12:40:31;;;;;;;1.48;0.20;;;22.10;99.90;;;;;;4955846;29;20031;-79
2022/06/25 12:42:59;;;;;;;1.27;0.30;;;22.20;99.90;;;;;;4938948;29;20036;-79
2022/06/25 12:45:25;;;;;;;1.38;0.20;;;22.30;99.90;;;;;;4955663;29;20050;-80
2022/06/25 12:47:52;;;;;;;1.55;0.30;;;22.30;99.90;;;;;;4955739;29;20032;-80
2022/06/25 12:50:29;;;;;;;0.70;0.40;;;22.40;99.90;;;;;;4955610;29;20039;-80
2022/06/25 12:53:04;;;;;;;0.30;0.30;;;22.40;99.90;;;;;;4938499;29;20059;-80
2022/06/25 12:55:29;;;;;;;1.02;0.47;;;22.60;99.90;;;;;;4938550;29;20055;-79
2022/06/25 12:57:55;;;;;;;1.95;0.45;;;22.70;99.90;;;;;;4959720;29;20074;-79
2022/06/25 13:00:22;;;;;;;0.63;0.40;;;23.00;99.90;;;;;;4959520;29;20059;-80
2022/06/25 13:02:49;;;;;;;1.45;0.57;;;22.90;99.90;;;;;;4959444;29;20082;-79
2022/06/25 13:05:16;;;;;;;2.58;0.60;;;23.10;99.90;;;;;;4942286;29;20035;-78
2022/06/25 13:07:43;;;;;;;1.15;0.30;;;23.10;99.90;;;;;;4959439;29;20078;-78